createdAt,value
2023-03-28T00:00:48.298Z,92.31
2023-03-28T00:01:48.307Z,92.52
2023-03-28T00:02:48.335Z,92.52
2023-03-28T00:03:48.364Z,92.10
2023-03-28T00:04:48.257Z,92.10
2023-03-28T00:05:48.288Z,91.20
2023-03-28T00:06:48.245Z,91.52
2023-03-28T00:07:48.231Z,91.31
2023-03-28T00:08:48.321Z,91.62
2023-03-28T00:09:48.212Z,91.72
2023-03-28T00:10:48.199Z,91.66
2023-03-28T00:11:48.217Z,92.19
2023-03-28T00:12:48.178Z,92.82
2023-03-28T00:13:48.175Z,93.24
2023-03-28T00:14:48.158Z,92.61
2023-03-28T00:15:48.190Z,93.24
2023-03-28T00:16:48.138Z,94.07
2023-03-28T00:17:48.190Z,93.97
2023-03-28T00:18:48.117Z,93.24
2023-03-28T00:19:48.111Z,94.07
2023-03-28T00:20:48.097Z,95.23
2023-03-28T00:21:48.090Z,95.43
2023-03-28T00:22:48.090Z,94.91
2023-03-28T00:23:48.075Z,95.39
2023-03-28T00:24:48.066Z,94.70
2023-03-28T00:25:48.052Z,94.70
2023-03-28T00:26:48.037Z,94.76
2023-03-28T00:27:48.040Z,94.87
2023-03-28T00:28:48.021Z,94.24
2023-03-28T00:29:48.014Z,93.51
2023-03-28T00:30:47.998Z,93.71
2023-03-28T00:31:48.036Z,93.82
2023-03-28T00:32:48.012Z,93.99
2023-03-28T00:33:47.973Z,94.30
2023-03-28T00:34:47.961Z,94.30
2023-03-28T00:35:48.001Z,95.35
2023-03-28T00:36:47.937Z,94.82
2023-03-28T00:37:47.940Z,94.82
2023-03-28T00:38:47.917Z,94.68
2023-03-28T00:39:47.905Z,94.82
2023-03-28T00:40:47.918Z,94.99
2023-03-28T00:41:47.889Z,95.09
2023-03-28T00:42:47.889Z,94.68
2023-03-28T00:43:47.872Z,94.26
2023-03-28T00:44:47.851Z,93.74
2023-03-28T00:45:59.021Z,93.74
2023-03-28T00:46:48.911Z,93.32
2023-03-28T00:47:47.889Z,93.74
2023-03-28T00:48:47.815Z,93.32
2023-03-28T00:49:47.806Z,93.27
2023-03-28T00:50:47.790Z,94.84
2023-03-28T00:51:47.787Z,95.99
2023-03-28T00:52:47.781Z,95.05
2023-03-28T00:53:47.766Z,95.47
2023-03-28T00:54:47.750Z,94.80
2023-03-28T00:55:47.748Z,93.70
2023-03-28T00:56:47.764Z,94.11
2023-03-28T00:57:47.741Z,94.32
2023-03-28T00:58:47.712Z,94.42
2023-03-28T00:59:47.696Z,94.84
2023-03-28T01:00:47.687Z,93.54
2023-03-28T01:01:47.816Z,93.65
2023-03-28T01:02:47.712Z,93.54
2023-03-28T01:03:47.797Z,93.33
2023-03-28T01:04:47.640Z,93.38
2023-03-28T01:05:47.647Z,93.48
2023-03-28T01:06:47.623Z,94.74
2023-03-28T01:07:47.633Z,95.01
2023-03-28T01:08:47.596Z,94.27
2023-03-28T01:09:47.588Z,94.01
2023-03-28T01:10:47.576Z,93.65
2023-03-28T01:11:47.574Z,92.54
2023-03-28T01:12:47.573Z,92.44
2023-03-28T01:13:47.545Z,92.33
2023-03-28T01:14:47.532Z,92.33
2023-03-28T01:15:47.533Z,92.16
2023-03-28T01:16:47.517Z,92.75
2023-03-28T01:17:48.643Z,91.98
2023-03-28T01:18:48.620Z,92.54
2023-03-28T01:19:48.611Z,92.02
2023-03-28T01:20:48.603Z,92.33
2023-03-28T01:21:48.636Z,92.65
2023-03-28T01:22:56.116Z,92.44
2023-03-28T01:23:49.565Z,92.65
2023-03-28T01:24:48.559Z,92.44
2023-03-28T01:25:48.553Z,92.50
2023-03-28T01:26:48.538Z,92.29
2023-03-28T01:27:48.534Z,92.54
2023-03-28T01:28:48.526Z,92.82
2023-03-28T01:29:48.503Z,93.13
2023-03-28T01:30:48.505Z,92.82
2023-03-28T01:31:48.540Z,93.33
2023-03-28T01:32:48.534Z,93.02
2023-03-28T01:33:48.476Z,92.71
2023-03-28T01:34:48.463Z,92.60
2023-03-28T01:35:48.492Z,92.40
2023-03-28T01:36:48.435Z,91.14
2023-03-28T01:37:48.433Z,90.83
2023-03-28T01:38:48.431Z,90.31
2023-03-28T01:39:48.409Z,91.14
2023-03-28T01:40:48.405Z,91.14
2023-03-28T01:41:48.389Z,91.39
2023-03-28T01:42:48.385Z,91.39
2023-03-28T01:43:48.395Z,90.97
2023-03-28T01:44:48.369Z,90.87
2023-03-28T01:45:48.446Z,91.18
2023-03-28T01:46:48.345Z,91.64
2023-03-28T01:47:48.364Z,92.06
2023-03-28T01:48:48.342Z,92.16
2023-03-28T01:49:48.320Z,91.43
2023-03-28T01:50:48.314Z,91.02
2023-03-28T01:51:48.302Z,91.02
2023-03-28T01:52:48.289Z,90.28
2023-03-28T01:53:48.295Z,91.54
2023-03-28T01:54:48.271Z,91.54
2023-03-28T01:55:48.263Z,91.33
2023-03-28T01:56:48.303Z,91.22
2023-03-28T01:57:48.256Z,90.59
2023-03-28T01:58:48.244Z,90.81
2023-03-28T01:59:48.224Z,90.28
2023-03-28T02:00:48.254Z,90.66
2023-03-28T02:01:48.207Z,90.91
2023-03-28T02:02:48.267Z,91.02
2023-03-28T02:03:48.191Z,91.28
2023-03-28T02:04:48.178Z,91.08
2023-03-28T02:05:48.158Z,90.66
2023-03-28T02:06:48.153Z,90.66
2023-03-28T02:07:48.150Z,90.56
2023-03-28T02:08:48.150Z,91.08
2023-03-28T02:09:48.124Z,90.97
2023-03-28T02:10:48.116Z,90.31
2023-03-28T02:11:48.106Z,91.03
2023-03-28T02:12:48.099Z,90.41
2023-03-28T02:13:48.106Z,91.03
2023-03-28T02:14:48.077Z,90.52
2023-03-28T02:15:48.085Z,90.72
2023-03-28T02:16:48.092Z,90.62
2023-03-28T02:17:48.125Z,90.52
2023-03-28T02:18:48.050Z,90.72
2023-03-28T02:19:48.035Z,91.10
2023-03-28T02:20:48.030Z,90.20
2023-03-28T02:21:48.013Z,90.47
2023-03-28T02:22:48.019Z,91.00
2023-03-28T02:23:48.006Z,90.58
2023-03-28T02:24:47.992Z,90.58
2023-03-28T02:25:47.976Z,90.37
2023-03-28T02:26:47.962Z,90.37
2023-03-28T02:27:47.960Z,90.37
2023-03-28T02:28:47.964Z,90.58
2023-03-28T02:29:47.942Z,90.16
2023-03-28T02:30:47.948Z,90.64
2023-03-28T02:31:47.954Z,90.16
2023-03-28T02:32:47.929Z,91.10
2023-03-28T02:33:47.942Z,91.10
2023-03-28T02:34:47.904Z,91.41
2023-03-28T02:35:47.916Z,92.14
2023-03-28T02:36:47.879Z,92.04
2023-03-28T02:37:47.869Z,92.25
2023-03-28T02:38:47.879Z,92.25
2023-03-28T02:39:47.852Z,92.56
2023-03-28T02:40:47.843Z,92.41
2023-03-28T02:41:47.830Z,92.10
2023-03-28T02:42:47.821Z,92.31
2023-03-28T02:43:47.828Z,91.89
2023-03-28T02:44:47.798Z,91.47
2023-03-28T02:45:48.878Z,91.72
2023-03-28T02:46:47.784Z,91.47
2023-03-28T02:47:47.789Z,91.37
2023-03-28T02:48:47.786Z,91.37
2023-03-28T02:49:50.646Z,91.16
2023-03-28T02:50:48.760Z,90.75
2023-03-28T02:51:47.737Z,92.41
2023-03-28T02:52:47.725Z,92.63
2023-03-28T02:53:47.710Z,92.52
2023-03-28T02:54:47.712Z,92.10
2023-03-28T02:55:47.698Z,92.10
2023-03-28T02:56:47.725Z,92.10
2023-03-28T02:57:47.674Z,91.96
2023-03-28T02:58:47.678Z,92.47
2023-03-28T02:59:47.665Z,92.27
2023-03-28T03:00:47.641Z,91.37
2023-03-28T03:01:47.700Z,91.06
2023-03-28T03:02:47.676Z,90.81
2023-03-28T03:03:47.653Z,91.06
2023-03-28T03:04:47.624Z,90.64
2023-03-28T03:05:47.595Z,90.75
2023-03-28T03:06:47.589Z,89.56
2023-03-28T03:07:47.582Z,89.39
2023-03-28T03:08:47.581Z,88.87
2023-03-28T03:09:47.558Z,89.39
2023-03-28T03:10:48.546Z,89.18
2023-03-28T03:11:48.535Z,89.95
2023-03-28T03:12:47.528Z,89.91
2023-03-28T03:13:47.520Z,89.43
2023-03-28T03:14:47.515Z,89.11
2023-03-28T03:15:47.507Z,89.53
2023-03-28T03:16:48.486Z,90.16
2023-03-28T03:17:47.583Z,90.78
2023-03-28T03:18:47.468Z,90.68
2023-03-28T03:19:47.471Z,90.68
2023-03-28T03:20:47.445Z,91.31
2023-03-28T03:21:47.430Z,90.58
2023-03-28T03:22:48.419Z,90.47
2023-03-28T03:23:47.417Z,90.95
2023-03-28T03:24:47.438Z,90.58
2023-03-28T03:25:47.392Z,90.37
2023-03-28T03:26:47.389Z,90.75
2023-03-28T03:27:47.379Z,90.64
2023-03-28T03:28:47.363Z,90.58
2023-03-28T03:29:47.366Z,90.43
2023-03-28T03:30:47.342Z,90.64
2023-03-28T03:31:47.384Z,90.64
2023-03-28T03:32:47.362Z,91.06
2023-03-28T03:33:47.312Z,90.85
2023-03-28T03:34:47.317Z,90.22
2023-03-28T03:35:47.360Z,90.53
2023-03-28T03:36:47.290Z,90.95
2023-03-28T03:37:47.282Z,91.06
2023-03-28T03:38:47.271Z,91.64
2023-03-28T03:39:47.282Z,91.06
2023-03-28T03:40:47.253Z,91.06
2023-03-28T03:41:47.248Z,91.22
2023-03-28T03:42:47.233Z,91.27
2023-03-28T03:43:47.389Z,91.06
2023-03-28T03:44:48.227Z,91.22
2023-03-28T03:45:47.227Z,90.95
2023-03-28T03:46:47.254Z,91.47
2023-03-28T03:47:47.250Z,91.06
2023-03-28T03:48:49.393Z,91.33
2023-03-28T03:49:47.320Z,90.81
2023-03-28T03:50:47.158Z,91.02
2023-03-28T03:51:47.144Z,90.81
2023-03-28T03:52:47.141Z,90.39
2023-03-28T03:53:47.127Z,89.87
2023-03-28T03:54:47.115Z,89.76
2023-03-28T03:55:47.118Z,90.18
2023-03-28T03:56:47.165Z,90.39
2023-03-28T03:57:47.082Z,90.60
2023-03-28T03:58:47.075Z,90.39
2023-03-28T03:59:47.067Z,90.81
2023-03-28T04:00:47.061Z,90.70
2023-03-28T04:01:48.075Z,90.45
2023-03-28T04:02:47.069Z,89.93
2023-03-28T04:03:47.049Z,90.18
2023-03-28T04:04:47.023Z,90.39
2023-03-28T04:05:47.020Z,90.28
2023-03-28T04:06:47.010Z,90.91
2023-03-28T04:07:46.989Z,90.60
2023-03-28T04:08:46.974Z,91.22
2023-03-28T04:09:46.966Z,91.02
2023-03-28T04:10:47.365Z,91.02
2023-03-28T04:11:47.953Z,90.70
2023-03-28T04:12:46.939Z,90.91
2023-03-28T04:13:46.931Z,91.02
2023-03-28T04:14:46.919Z,90.22
2023-03-28T04:15:46.940Z,90.70
2023-03-28T04:16:46.900Z,90.50
2023-03-28T04:17:46.929Z,90.81
2023-03-28T04:18:46.883Z,90.08
2023-03-28T04:19:46.875Z,90.08
2023-03-28T04:20:46.881Z,90.91
2023-03-28T04:21:46.854Z,90.08
2023-03-28T04:22:46.844Z,90.50
2023-03-28T04:23:46.840Z,90.60
2023-03-28T04:24:46.831Z,90.91
2023-03-28T04:25:46.830Z,89.87
2023-03-28T04:26:46.817Z,90.33
2023-03-28T04:27:46.800Z,90.12
2023-03-28T04:28:46.788Z,89.59
2023-03-28T04:29:46.829Z,90.75
2023-03-28T04:30:46.818Z,90.01
2023-03-28T04:31:46.809Z,90.64
2023-03-28T04:32:46.801Z,90.75
2023-03-28T04:33:46.747Z,90.33
2023-03-28T04:34:46.732Z,90.12
2023-03-28T04:35:46.806Z,90.43
2023-03-28T04:36:46.717Z,91.06
2023-03-28T04:37:46.712Z,90.75
2023-03-28T04:38:46.696Z,91.16
2023-03-28T04:39:47.696Z,90.22
2023-03-28T04:40:46.697Z,91.06
2023-03-28T04:41:46.682Z,90.95
2023-03-28T04:42:46.662Z,90.22
2023-03-28T04:43:46.663Z,90.95
2023-03-28T04:44:46.649Z,91.22
2023-03-28T04:45:46.713Z,90.28
2023-03-28T04:46:46.640Z,90.08
2023-03-28T04:47:46.726Z,90.50
2023-03-28T04:48:46.616Z,90.18
2023-03-28T04:49:46.601Z,90.50
2023-03-28T04:50:46.608Z,90.18
2023-03-28T04:51:46.581Z,90.70
2023-03-28T04:52:46.578Z,90.81
2023-03-28T04:53:46.557Z,90.91
2023-03-28T04:54:46.554Z,91.02
2023-03-28T04:55:46.554Z,90.60
2023-03-28T04:56:46.548Z,90.18
2023-03-28T04:57:46.525Z,90.28
2023-03-28T04:58:46.513Z,90.28
2023-03-28T04:59:46.516Z,90.50
2023-03-28T05:00:46.510Z,90.28
2023-03-28T05:01:46.514Z,90.60
2023-03-28T05:02:46.517Z,90.81
2023-03-28T05:03:46.481Z,90.18
2023-03-28T05:04:46.458Z,90.70
2023-03-28T05:05:46.456Z,90.50
2023-03-28T05:06:46.452Z,89.45
2023-03-28T05:07:46.429Z,89.31
2023-03-28T05:08:46.420Z,89.51
2023-03-28T05:09:46.412Z,89.76
2023-03-28T05:10:46.419Z,89.87
2023-03-28T05:11:46.394Z,90.56
2023-03-28T05:12:46.379Z,89.62
2023-03-28T05:13:46.365Z,90.50
2023-03-28T05:14:46.366Z,90.39
2023-03-28T05:15:46.342Z,90.87
2023-03-28T05:16:46.360Z,89.97
2023-03-28T05:17:46.379Z,90.87
2023-03-28T05:18:46.316Z,90.60
2023-03-28T05:19:46.298Z,90.60
2023-03-28T05:20:46.296Z,90.45
2023-03-28T05:21:46.298Z,89.83
2023-03-28T05:22:46.259Z,89.83
2023-03-28T05:23:51.750Z,89.93
2023-03-28T05:24:47.248Z,90.56
2023-03-28T05:25:46.241Z,89.93
2023-03-28T05:26:46.248Z,90.35
2023-03-28T05:27:46.225Z,89.83
2023-03-28T05:28:53.240Z,89.83
2023-03-28T05:29:46.236Z,90.25
2023-03-28T05:30:46.261Z,89.93
2023-03-28T05:31:46.347Z,90.45
2023-03-28T05:32:46.228Z,90.56
2023-03-28T05:33:46.236Z,89.72
2023-03-28T05:34:46.322Z,88.95
2023-03-28T05:35:46.283Z,88.95
2023-03-28T05:36:46.241Z,89.06
2023-03-28T05:37:47.059Z,88.95
2023-03-28T05:38:47.184Z,88.85
2023-03-28T05:39:46.156Z,88.75
2023-03-28T05:40:46.154Z,88.32
2023-03-28T05:41:46.208Z,89.16
2023-03-28T05:42:46.140Z,88.75
2023-03-28T05:43:46.088Z,88.85
2023-03-28T05:44:46.091Z,88.64
2023-03-28T05:45:46.117Z,88.60
2023-03-28T05:46:46.085Z,88.81
2023-03-28T05:47:46.100Z,88.08
2023-03-28T05:48:49.576Z,87.66
2023-03-28T05:49:46.133Z,87.66
2023-03-28T05:50:46.013Z,87.66
2023-03-28T05:51:46.024Z,87.14
2023-03-28T05:52:46.007Z,86.89
2023-03-28T05:53:45.988Z,86.51
2023-03-28T05:54:50.546Z,86.89
2023-03-28T05:55:47.082Z,86.85
2023-03-28T05:56:46.138Z,85.73
2023-03-28T05:57:48.958Z,85.52
2023-03-28T05:58:46.998Z,83.99
2023-03-28T05:59:46.005Z,82.91
2023-03-28T06:00:46.016Z,82.70
2023-03-28T06:01:45.976Z,82.32
2023-03-28T06:02:46.011Z,81.81
2023-03-28T06:03:46.065Z,81.74
2023-03-28T06:04:45.943Z,82.36
2023-03-28T06:05:45.968Z,83.20
2023-03-28T06:06:45.913Z,82.74
2023-03-28T06:07:45.894Z,83.72
2023-03-28T06:08:45.940Z,82.68
2023-03-28T06:09:45.918Z,83.51
2023-03-28T06:10:45.865Z,83.30
2023-03-28T06:11:45.846Z,83.51
2023-03-28T06:12:45.873Z,83.61
2023-03-28T06:13:45.846Z,82.46
2023-03-28T06:14:45.810Z,82.99
2023-03-28T06:15:45.807Z,83.61
2023-03-28T06:16:45.840Z,81.60
2023-03-28T06:17:45.895Z,81.49
2023-03-28T06:18:45.782Z,82.08
2023-03-28T06:19:45.796Z,82.91
2023-03-28T06:20:46.833Z,82.22
2023-03-28T06:21:45.760Z,81.81
2023-03-28T06:22:45.751Z,83.22
2023-03-28T06:23:45.743Z,81.81
2023-03-28T06:24:45.726Z,81.70
2023-03-28T06:25:45.725Z,81.81
2023-03-28T06:26:45.706Z,82.12
2023-03-28T06:27:45.706Z,82.22
2023-03-28T06:28:45.675Z,81.84
2023-03-28T06:29:45.684Z,82.68
2023-03-28T06:30:45.672Z,82.89
2023-03-28T06:31:45.744Z,83.20
2023-03-28T06:32:45.693Z,83.23
2023-03-28T06:33:45.632Z,83.86
2023-03-28T06:34:45.648Z,83.51
2023-03-28T06:35:45.658Z,83.61
2023-03-28T06:36:45.604Z,83.86
2023-03-28T06:37:45.614Z,82.92
2023-03-28T06:38:45.598Z,84.65
2023-03-28T06:39:45.559Z,84.44
2023-03-28T06:40:45.557Z,83.72
2023-03-28T06:41:45.570Z,84.03
2023-03-28T06:42:45.531Z,84.55
2023-03-28T06:43:45.539Z,83.92
2023-03-28T06:44:45.550Z,81.84
2023-03-28T06:45:45.535Z,83.13
2023-03-28T06:46:45.602Z,83.20
2023-03-28T06:47:45.570Z,83.96
2023-03-28T06:48:45.493Z,82.92
2023-03-28T06:49:45.502Z,82.51
2023-03-28T06:50:45.592Z,83.17
2023-03-28T06:51:45.481Z,83.27
2023-03-28T06:52:45.462Z,82.96
2023-03-28T06:53:45.476Z,84.42
2023-03-28T06:54:47.919Z,84.63
2023-03-28T06:55:45.429Z,84.80
2023-03-28T06:56:45.444Z,84.59
2023-03-28T06:57:45.399Z,83.90
2023-03-28T06:58:45.393Z,83.23
2023-03-28T06:59:45.383Z,83.34
2023-03-28T07:00:45.360Z,82.51
2023-03-28T07:01:45.433Z,83.23
2023-03-28T07:02:45.498Z,84.23
2023-03-28T07:03:45.448Z,83.20
2023-03-28T07:04:45.351Z,84.68
2023-03-28T07:05:45.336Z,83.01
2023-03-28T07:06:45.387Z,83.01
2023-03-28T07:07:45.429Z,82.35
2023-03-28T07:08:45.486Z,82.15
2023-03-28T07:09:45.244Z,82.94
2023-03-28T07:10:45.245Z,82.21
2023-03-28T07:11:45.262Z,80.73
2023-03-28T07:12:45.260Z,81.14
2023-03-28T07:13:45.247Z,81.10
2023-03-28T07:14:45.282Z,79.06
2023-03-28T07:15:45.224Z,78.58
2023-03-28T07:16:45.275Z,79.51
2023-03-28T07:17:45.250Z,80.52
2023-03-28T07:18:45.183Z,81.56
2023-03-28T07:19:45.157Z,80.16
2023-03-28T07:20:47.478Z,80.85
2023-03-28T07:21:47.158Z,80.51
2023-03-28T07:22:45.150Z,80.09
2023-03-28T07:23:45.120Z,79.02
2023-03-28T07:24:45.105Z,78.92
2023-03-28T07:25:45.107Z,78.40
2023-03-28T07:26:45.087Z,76.84
2023-03-28T07:27:45.109Z,77.01
2023-03-28T07:28:45.058Z,76.84
2023-03-28T07:29:45.085Z,77.22
2023-03-28T07:30:45.043Z,75.67
2023-03-28T07:31:45.093Z,76.43
2023-03-28T07:32:53.776Z,75.22
2023-03-28T07:33:47.026Z,77.81
2023-03-28T07:34:45.027Z,78.78
2023-03-28T07:35:45.089Z,77.95
2023-03-28T07:36:44.986Z,78.99
2023-03-28T07:37:45.004Z,75.57
2023-03-28T07:38:47.229Z,78.58
2023-03-28T07:39:44.957Z,77.78
2023-03-28T07:40:44.937Z,78.27
2023-03-28T07:41:44.932Z,77.95
2023-03-28T07:42:44.943Z,78.02
2023-03-28T07:43:44.892Z,77.81
2023-03-28T07:44:44.897Z,77.61
2023-03-28T07:45:44.885Z,75.43
2023-03-28T07:46:44.881Z,75.43
2023-03-28T07:47:44.906Z,78.61
2023-03-28T07:48:44.850Z,79.19
2023-03-28T07:49:44.858Z,77.15
2023-03-28T07:50:44.854Z,77.64
2023-03-28T07:51:44.832Z,75.88
2023-03-28T07:52:44.848Z,74.98
2023-03-28T07:53:44.795Z,72.50
2023-03-28T07:54:44.785Z,73.95
2023-03-28T07:55:54.529Z,72.91
2023-03-28T07:56:46.806Z,70.78
2023-03-28T07:57:44.829Z,73.43
2023-03-28T07:58:44.774Z,70.88
2023-03-28T07:59:44.744Z,70.84
2023-03-28T08:00:44.726Z,72.74
2023-03-28T08:01:44.737Z,72.88
2023-03-28T08:02:45.311Z,72.91
2023-03-28T08:03:45.851Z,74.22
2023-03-28T08:04:44.691Z,74.74
2023-03-28T08:05:44.747Z,72.15
2023-03-28T08:06:44.667Z,72.98
2023-03-28T08:07:44.663Z,73.05
2023-03-28T08:08:44.660Z,72.02
2023-03-28T08:09:44.645Z,73.08
2023-03-28T08:10:44.626Z,75.15
2023-03-28T08:11:44.607Z,74.29
2023-03-28T08:12:44.624Z,75.50
2023-03-28T08:13:44.601Z,72.91
2023-03-28T08:14:44.572Z,73.08
2023-03-28T08:15:44.612Z,71.30
2023-03-28T08:16:44.544Z,72.12
2023-03-28T08:17:44.669Z,70.12
2023-03-28T08:18:44.713Z,69.47
2023-03-28T08:19:44.513Z,69.02
2023-03-28T08:20:44.522Z,69.02
2023-03-28T08:21:44.516Z,68.78
2023-03-28T08:22:44.510Z,74.08
2023-03-28T08:23:44.482Z,73.02
2023-03-28T08:24:44.477Z,71.89
2023-03-28T08:25:44.456Z,70.51
2023-03-28T08:26:45.146Z,68.52
2023-03-28T08:27:44.471Z,66.87
2023-03-28T08:28:44.419Z,68.35
2023-03-28T08:29:44.456Z,66.99
2023-03-28T08:30:44.406Z,65.41
2023-03-28T08:31:44.442Z,62.95
2023-03-28T08:32:46.266Z,63.79
2023-03-28T08:33:44.403Z,62.90
2023-03-28T08:34:44.394Z,64.89
2023-03-28T08:35:44.375Z,63.34
2023-03-28T08:36:44.330Z,63.75
2023-03-28T08:37:44.326Z,62.96
2023-03-28T08:38:44.304Z,63.57
2023-03-28T08:39:44.265Z,63.34
2023-03-28T08:40:44.251Z,61.77
2023-03-28T08:41:44.244Z,61.33
2023-03-28T08:42:44.251Z,61.99
2023-03-28T08:43:44.277Z,59.70
2023-03-28T08:44:46.065Z,61.52
2023-03-28T08:45:44.267Z,61.98
2023-03-28T08:46:44.352Z,56.20
2023-03-28T08:47:44.287Z,62.02
2023-03-28T08:48:44.247Z,58.72
2023-03-28T08:49:44.240Z,53.67
2023-03-28T08:50:44.237Z,58.69
2023-03-28T08:51:44.180Z,53.77
2023-03-28T08:52:44.224Z,57.38
2023-03-28T08:53:44.216Z,58.03
2023-03-28T08:54:44.192Z,57.13
2023-03-28T08:55:44.173Z,57.64
2023-03-28T08:56:44.183Z,58.28
2023-03-28T08:57:44.179Z,59.64
2023-03-28T08:58:44.123Z,56.77
2023-03-28T08:59:44.079Z,57.39
2023-03-28T09:00:44.099Z,56.36
2023-03-28T09:01:44.143Z,59.13
2023-03-28T09:02:44.348Z,59.03
2023-03-28T09:03:44.196Z,54.87
2023-03-28T09:04:44.071Z,57.78
2023-03-28T09:05:44.067Z,62.19
2023-03-28T09:06:44.102Z,59.26
2023-03-28T09:07:44.031Z,56.38
2023-03-28T09:08:44.035Z,56.46
2023-03-28T09:09:44.061Z,56.23
2023-03-28T09:10:44.057Z,59.35
2023-03-28T09:11:43.985Z,62.44
2023-03-28T09:12:43.969Z,61.28
2023-03-28T09:13:44.002Z,61.05
2023-03-28T09:14:43.976Z,63.67
2023-03-28T09:15:43.941Z,67.58
2023-03-28T09:16:44.038Z,66.31
2023-03-28T09:17:43.945Z,66.87
2023-03-28T09:18:44.091Z,65.02
2023-03-28T09:19:48.474Z,63.06
2023-03-28T09:20:45.897Z,61.31
2023-03-28T09:21:43.880Z,61.38
2023-03-28T09:22:43.862Z,62.25
2023-03-28T09:23:43.873Z,60.47
2023-03-28T09:24:43.836Z,59.96
2023-03-28T09:25:43.814Z,59.68
2023-03-28T09:26:43.885Z,59.12
2023-03-28T09:27:43.800Z,61.07
2023-03-28T09:28:43.817Z,64.44
2023-03-28T09:29:43.828Z,65.68
2023-03-28T09:30:43.792Z,63.90
2023-03-28T09:31:43.828Z,63.49
2023-03-28T09:32:43.959Z,60.40
2023-03-28T09:33:43.768Z,61.15
2023-03-28T09:34:43.761Z,65.92
2023-03-28T09:35:43.795Z,60.24
2023-03-28T09:36:49.017Z,62.85
2023-03-28T09:37:45.725Z,60.16
2023-03-28T09:38:43.713Z,57.62
2023-03-28T09:39:43.732Z,57.51
2023-03-28T09:40:43.707Z,60.19
2023-03-28T09:41:43.671Z,57.44
2023-03-28T09:42:43.656Z,58.87
2023-03-28T09:43:43.670Z,57.85
2023-03-28T09:44:51.326Z,57.26
2023-03-28T09:45:45.618Z,57.16
2023-03-28T09:46:43.603Z,58.91
2023-03-28T09:47:43.612Z,55.72
2023-03-28T09:48:43.685Z,56.02
2023-03-28T09:49:44.623Z,58.31
2023-03-28T09:50:43.568Z,57.46
2023-03-28T09:51:43.546Z,56.98
2023-03-28T09:52:43.561Z,60.06
2023-03-28T09:53:43.576Z,62.23
2023-03-28T09:54:43.550Z,61.51
2023-03-28T09:55:49.018Z,59.03
2023-03-28T09:56:45.549Z,56.05
2023-03-28T09:57:43.471Z,58.52
2023-03-28T09:58:43.471Z,59.22
2023-03-28T09:59:43.447Z,59.80
2023-03-28T10:00:43.468Z,61.49
2023-03-28T10:01:43.526Z,60.56
2023-03-28T10:02:43.474Z,55.49
2023-03-28T10:03:43.418Z,49.83
2023-03-28T10:04:43.471Z,52.57
2023-03-28T10:05:43.403Z,54.33
2023-03-28T10:06:43.369Z,55.71
2023-03-28T10:07:43.406Z,52.09
2023-03-28T10:08:43.364Z,50.54
2023-03-28T10:09:43.402Z,48.15
2023-03-28T10:10:43.339Z,45.18
2023-03-28T10:11:43.438Z,46.48
2023-03-28T10:12:43.420Z,48.21
2023-03-28T10:13:43.362Z,49.86
2023-03-28T10:14:43.423Z,44.28
2023-03-28T10:15:43.449Z,45.22
2023-03-28T10:16:43.844Z,44.78
2023-03-28T10:17:43.309Z,45.02
2023-03-28T10:18:43.271Z,46.34
2023-03-28T10:19:43.282Z,49.62
2023-03-28T10:20:43.347Z,50.48
2023-03-28T10:21:43.213Z,50.48
2023-03-28T10:22:43.217Z,52.40
2023-03-28T10:23:43.258Z,49.34
2023-03-28T10:24:43.202Z,47.32
2023-03-28T10:25:43.193Z,48.26
2023-03-28T10:26:43.200Z,50.71
2023-03-28T10:27:43.188Z,49.51
2023-03-28T10:28:43.197Z,50.66
2023-03-28T10:29:43.221Z,52.65
2023-03-28T10:30:43.225Z,52.93
2023-03-28T10:31:43.185Z,55.33
2023-03-28T10:32:43.148Z,51.59
2023-03-28T10:33:43.111Z,45.76
2023-03-28T10:34:43.129Z,48.28
2023-03-28T10:35:43.141Z,41.19
2023-03-28T10:36:43.103Z,40.35
2023-03-28T10:37:43.084Z,45.69
2023-03-28T10:38:43.061Z,44.55
2023-03-28T10:39:43.400Z,46.23
2023-03-28T10:40:43.061Z,45.27
2023-03-28T10:41:43.072Z,48.80
2023-03-28T10:42:43.040Z,49.54
2023-03-28T10:43:43.057Z,50.40
2023-03-28T10:44:43.047Z,50.85
2023-03-28T10:45:43.008Z,52.64
2023-03-28T10:46:43.064Z,54.57
2023-03-28T10:47:43.034Z,49.34
2023-03-28T10:48:42.975Z,53.52
2023-03-28T10:49:43.245Z,51.88
2023-03-28T10:50:42.960Z,52.80
2023-03-28T10:51:42.974Z,51.47
2023-03-28T10:52:42.971Z,48.42
2023-03-28T10:53:42.943Z,52.72
2023-03-28T10:54:42.965Z,51.88
2023-03-28T10:55:42.892Z,50.73
2023-03-28T10:56:42.964Z,49.44
2023-03-28T10:57:42.908Z,49.77
2023-03-28T10:58:42.893Z,56.79
2023-03-28T10:59:42.900Z,56.56
2023-03-28T11:00:42.884Z,55.43
2023-03-28T11:01:42.853Z,52.03
2023-03-28T11:02:42.969Z,48.02
2023-03-28T11:03:43.002Z,51.21
2023-03-28T11:04:42.825Z,49.55
2023-03-28T11:05:42.808Z,48.21
2023-03-28T11:06:42.811Z,48.43
2023-03-28T11:07:42.819Z,49.13
2023-03-28T11:08:42.808Z,48.51
2023-03-28T11:09:42.781Z,49.21
2023-03-28T11:10:42.828Z,47.90
2023-03-28T11:11:42.770Z,51.57
2023-03-28T11:12:54.321Z,52.19
2023-03-28T11:13:44.784Z,48.33
2023-03-28T11:14:42.723Z,51.17
2023-03-28T11:15:42.767Z,49.62
2023-03-28T11:16:42.736Z,48.57
2023-03-28T11:17:42.734Z,48.67
2023-03-28T11:18:42.670Z,53.62
2023-03-28T11:19:42.696Z,53.34
2023-03-28T11:20:42.682Z,49.86
2023-03-28T11:21:42.699Z,47.27
2023-03-28T11:22:47.719Z,42.77
2023-03-28T11:23:43.652Z,46.28
2023-03-28T11:24:44.233Z,46.70
2023-03-28T11:25:42.691Z,46.44
2023-03-28T11:26:42.638Z,44.40
2023-03-28T11:27:42.745Z,44.61
2023-03-28T11:28:45.275Z,46.48
2023-03-28T11:29:44.077Z,47.81
2023-03-28T11:30:43.603Z,47.81
2023-03-28T11:31:43.302Z,44.57
2023-03-28T11:32:42.585Z,43.26
2023-03-28T11:33:42.592Z,45.00
2023-03-28T11:34:42.875Z,46.30
2023-03-28T11:35:43.681Z,43.49
2023-03-28T11:36:42.575Z,44.17
2023-03-28T11:37:42.510Z,46.15
2023-03-28T11:38:42.501Z,48.44
2023-03-28T11:39:42.517Z,49.75
2023-03-28T11:40:42.512Z,49.30
2023-03-28T11:41:42.513Z,50.71
2023-03-28T11:42:42.455Z,47.22
2023-03-28T11:43:42.479Z,48.42
2023-03-28T11:44:42.499Z,48.50
2023-03-28T11:45:50.085Z,50.03
2023-03-28T11:46:44.441Z,45.32
2023-03-28T11:47:42.476Z,46.09
2023-03-28T11:48:42.395Z,47.25
2023-03-28T11:49:42.391Z,48.88
2023-03-28T11:50:42.464Z,42.51
2023-03-28T11:51:42.370Z,40.37
2023-03-28T11:52:42.388Z,41.75
2023-03-28T11:53:42.457Z,43.41
2023-03-28T11:54:42.419Z,47.53
2023-03-28T11:55:42.352Z,46.83
2023-03-28T11:56:42.352Z,44.81
2023-03-28T11:57:42.319Z,46.11
2023-03-28T11:58:42.313Z,43.61
2023-03-28T11:59:42.341Z,46.09
2023-03-28T12:00:42.623Z,46.01
2023-03-28T12:01:43.263Z,44.90
2023-03-28T12:02:42.416Z,46.44
2023-03-28T12:03:42.277Z,46.46
2023-03-28T12:04:42.220Z,51.23
2023-03-28T12:05:42.267Z,49.77
2023-03-28T12:06:52.306Z,52.41
2023-03-28T12:07:44.245Z,55.79
2023-03-28T12:08:42.332Z,54.36
2023-03-28T12:09:42.169Z,47.44
2023-03-28T12:10:42.195Z,48.11
2023-03-28T12:11:42.180Z,48.44
2023-03-28T12:12:42.157Z,48.55
2023-03-28T12:13:45.981Z,48.24
2023-03-28T12:14:43.157Z,48.65
2023-03-28T12:15:42.282Z,49.37
2023-03-28T12:16:42.402Z,50.57
2023-03-28T12:17:43.119Z,46.39
2023-03-28T12:18:42.078Z,48.01
2023-03-28T12:19:42.032Z,45.25
2023-03-28T12:20:42.026Z,44.64
2023-03-28T12:21:42.028Z,45.35
2023-03-28T12:22:42.036Z,46.44
2023-03-28T12:23:42.010Z,46.62
2023-03-28T12:24:42.185Z,47.03
2023-03-28T12:25:41.991Z,48.17
2023-03-28T12:26:41.969Z,46.84
2023-03-28T12:27:41.980Z,48.27
2023-03-28T12:28:41.960Z,50.14
2023-03-28T12:29:41.960Z,49.55
2023-03-28T12:30:42.022Z,49.47
2023-03-28T12:31:41.988Z,51.01
2023-03-28T12:32:41.997Z,50.55
2023-03-28T12:33:41.943Z,48.42
2023-03-28T12:34:41.959Z,49.85
2023-03-28T12:35:42.006Z,49.55
2023-03-28T12:36:41.988Z,50.18
2023-03-28T12:37:41.902Z,49.80
2023-03-28T12:38:42.634Z,49.93
2023-03-28T12:39:42.017Z,50.02
2023-03-28T12:40:42.020Z,48.82
2023-03-28T12:41:41.940Z,51.59
2023-03-28T12:42:41.866Z,49.93
2023-03-28T12:43:41.901Z,48.72
2023-03-28T12:44:41.853Z,49.62
2023-03-28T12:45:41.876Z,50.82
2023-03-28T12:46:41.857Z,49.24
2023-03-28T12:47:41.911Z,50.42
2023-03-28T12:48:41.794Z,47.92
2023-03-28T12:49:41.795Z,44.96
2023-03-28T12:50:41.801Z,48.48
2023-03-28T12:51:41.777Z,46.07
2023-03-28T12:52:41.753Z,47.09